Wetterdaten: aktuell Mittwoch, 25.05.2022 12:40
Datum Zeit Temp. A. Feuchte A. Luftdruck Regen Wind Richtung Richtung Taupunkt Windchill Windben
25.05.2022 12:40 12,7 C 78 % 1016,6 hPa 0,0 l/m 4,0 km/h (1 Bft) S-SW 211 9,0 C 12,7 C 6,4 km/h (2 Bft)
25.05.2022 12:35 12,3 C 78 % 1016,5 hPa 0,0 l/m 4,2 km/h (1 Bft) W 260 8,6 C 12,3 C 11,3 km/h (2 Bft)
25.05.2022 12:30 12,1 C 75 % 1016,6 hPa 0,0 l/m 4,3 km/h (1 Bft) S-SW 192 7,8 C 12,1 C 14,5 km/h (3 Bft)
25.05.2022 12:25 11,8 C 80 % 1016,6 hPa 0,0 l/m 4,2 km/h (1 Bft) W 272 8,5 C 11,8 C 9,7 km/h (2 Bft)
25.05.2022 12:20 11,3 C 82 % 1016,6 hPa 0,0 l/m 6,0 km/h (2 Bft) S-SW 209 8,3 C 11,3 C 14,5 km/h (3 Bft)
25.05.2022 12:15 10,8 C 81 % 1016,6 hPa 0,0 l/m 7,2 km/h (2 Bft) SW 232 7,7 C 10,2 C 12,9 km/h (3 Bft)
25.05.2022 12:10 10,7 C 80 % 1016,5 hPa 0,0 l/m 8,8 km/h (2 Bft) SW 219 7,4 C 9,1 C 16,1 km/h (3 Bft)
25.05.2022 12:05 10,8 C 81 % 1016,5 hPa 0,0 l/m 5,9 km/h (2 Bft) S-SW 192 7,7 C 10,8 C 14,5 km/h (3 Bft)
25.05.2022 12:00 10,7 C 82 % 1016,5 hPa 0,0 l/m 5,8 km/h (2 Bft) S 175 7,8 C 10,7 C 14,5 km/h (3 Bft)
25.05.2022 11:55 10,7 C 83 % 1016,4 hPa 0,0 l/m 4,8 km/h (1 Bft) W-SW 242 7,9 C 10,7 C 11,3 km/h (2 Bft)
25.05.2022 11:50 10,6 C 85 % 1016,4 hPa 0,0 l/m 3,5 km/h (1 Bft) S-SW 207 8,2 C 10,6 C 9,7 km/h (2 Bft)
25.05.2022 11:45 10,5 C 85 % 1016,4 hPa 0,0 l/m 2,5 km/h (1 Bft) S-SO 159 8,1 C 10,5 C 9,7 km/h (2 Bft)
25.05.2022 11:40 10,2 C 85 % 1016,4 hPa 0,0 l/m 2,0 km/h (1 Bft) S 182 7,8 C 10,2 C 6,4 km/h (2 Bft)
25.05.2022 11:35 10,2 C 87 % 1016,4 hPa 0,0 l/m 1,2 km/h (1 Bft) SW 217 8,1 C 10,2 C 6,4 km/h (2 Bft)
25.05.2022 11:30 9,9 C 87 % 1016,4 hPa 0,0 l/m 3,0 km/h (1 Bft) S-SW 211 7,8 C 9,9 C 6,4 km/h (2 Bft)
25.05.2022 11:25 9,8 C 87 % 1016,4 hPa 0,0 l/m 1,0 km/h (0 Bft) SW 230 7,7 C 9,8 C 4,8 km/h (1 Bft)
25.05.2022 11:20 9,7 C 89 % 1016,3 hPa 0,0 l/m 0,6 km/h (0 Bft) SO 140 8,0 C 9,7 C 3,2 km/h (1 Bft)
25.05.2022 11:15 9,6 C 89 % 1016,2 hPa 0,0 l/m 1,4 km/h (1 Bft) S-SW 202 7,9 C 9,6 C 4,8 km/h (1 Bft)
25.05.2022 11:10 9,4 C 90 % 1016,2 hPa 0,0 l/m 1,5 km/h (1 Bft) S-SW 207 7,8 C 9,4 C 4,8 km/h (1 Bft)
25.05.2022 11:05 9,2 C 91 % 1016,1 hPa 0,0 l/m 1,3 km/h (1 Bft) S-SW 205 7,8 C 9,2 C 4,8 km/h (1 Bft)
25.05.2022 11:00 9,0 C 92 % 1016,2 hPa 0,0 l/m 0,4 km/h (0 Bft) O-NO 71 7,8 C 9,0 C 4,8 km/h (1 Bft)
25.05.2022 10:55 9,0 C 92 % 1016,3 hPa 0,0 l/m 0,0 km/h (0 Bft) S 182 7,8 C 9,0 C 0,0 km/h (0 Bft)
25.05.2022 10:50 9,2 C 94 % 1016,4 hPa 0,0 l/m 0,9 km/h (0 Bft) S 188 8,3 C 9,2 C 4,8 km/h (1 Bft)
25.05.2022 10:45 8,8 C 94 % 1016,5 hPa 0,0 l/m 0,7 km/h (0 Bft) S-SW 209 7,9 C 8,8 C 3,2 km/h (1 Bft)
25.05.2022 10:40 8,4 C 93 % 1016,6 hPa 0,0 l/m 0,8 km/h (0 Bft) S 190 7,3 C 8,4 C 3,2 km/h (1 Bft)
25.05.2022 10:35 8,5 C 93 % 1016,6 hPa 0,2 l/m 1,1 km/h (1 Bft) S-SO 153 7,4 C 8,5 C 3,2 km/h (1 Bft)
25.05.2022 10:30 8,5 C 92 % 1016,5 hPa 0,0 l/m 1,4 km/h (1 Bft) SW 216 7,3 C 8,5 C 4,8 km/h (1 Bft)
25.05.2022 10:25 8,6 C 91 % 1016,6 hPa 0,0 l/m 0,8 km/h (0 Bft) S-SO 163 7,2 C 8,6 C 3,2 km/h (1 Bft)
25.05.2022 10:20 8,5 C 90 % 1016,6 hPa 0,0 l/m 2,8 km/h (1 Bft) W-SW 243 7,0 C 8,5 C 6,4 km/h (2 Bft)
25.05.2022 10:15 8,6 C 90 % 1016,5 hPa 0,0 l/m 1,6 km/h (1 Bft) SW 225 7,1 C 8,6 C 6,4 km/h (2 Bft)
25.05.2022 10:10 8,7 C 90 % 1016,5 hPa 0,2 l/m 1,1 km/h (1 Bft) SW 221 7,2 C 8,7 C 4,8 km/h (1 Bft)
25.05.2022 10:05 8,6 C 90 % 1016,6 hPa 0,0 l/m 0,3 km/h (0 Bft) SW 216 7,1 C 8,6 C 3,2 km/h (1 Bft)
25.05.2022 10:00 8,7 C 90 % 1016,7 hPa 0,2 l/m 1,5 km/h (1 Bft) W-SW 255 7,2 C 8,7 C 6,4 km/h (2 Bft)
25.05.2022 09:55 8,6 C 91 % 1016,7 hPa 0,0 l/m 0,3 km/h (0 Bft) NW 323 7,2 C 8,6 C 1,6 km/h (1 Bft)
25.05.2022 09:50 8,6 C 90 % 1016,6 hPa 0,2 l/m 0,6 km/h (0 Bft) N-NO 24 7,1 C 8,6 C 6,4 km/h (2 Bft)
25.05.2022 09:45 8,7 C 90 % 1016,6 hPa 0,0 l/m 1,2 km/h (1 Bft) W-NW 289 7,2 C 8,7 C 6,4 km/h (2 Bft)
25.05.2022 09:40 8,7 C 90 % 1016,6 hPa 0,2 l/m 3,4 km/h (1 Bft) NW 313 7,2 C 8,7 C 9,7 km/h (2 Bft)
25.05.2022 09:35 8,7 C 90 % 1016,5 hPa 0,0 l/m 2,7 km/h (1 Bft) W-SW 254 7,2 C 8,7 C 8,0 km/h (2 Bft)
25.05.2022 09:30 8,8 C 90 % 1016,3 hPa 0,2 l/m 2,2 km/h (1 Bft) NW 311 7,3 C 8,8 C 8,0 km/h (2 Bft)
25.05.2022 09:25 8,8 C 89 % 1016,2 hPa 0,2 l/m 0,6 km/h (0 Bft) W 265 7,1 C 8,8 C 4,8 km/h (1 Bft)
25.05.2022 09:20 8,9 C 89 % 1016,2 hPa 0,0 l/m 0,4 km/h (0 Bft) N-NW 332 7,2 C 8,9 C 3,2 km/h (1 Bft)
25.05.2022 09:15 8,9 C 89 % 1016,1 hPa 0,2 l/m 2,7 km/h (1 Bft) N-NW 329 7,2 C 8,9 C 8,0 km/h (2 Bft)
25.05.2022 09:10 9,2 C 89 % 1016,0 hPa 0,0 l/m 0,8 km/h (0 Bft) W-NW 300 7,5 C 9,2 C 6,4 km/h (2 Bft)
25.05.2022 09:05 9,4 C 90 % 1016,0 hPa 0,2 l/m 0,3 km/h (0 Bft) N-NO 28 7,8 C 9,4 C 1,6 km/h (1 Bft)
25.05.2022 09:00 9,4 C 90 % 1015,9 hPa 0,0 l/m 0,3 km/h (0 Bft) S-SW 212 7,8 C 9,4 C 3,2 km/h (1 Bft)
25.05.2022 08:55 9,4 C 90 % 1015,7 hPa 0,0 l/m 0,3 km/h (0 Bft) N-NO 33 7,8 C 9,4 C 3,2 km/h (1 Bft)
25.05.2022 08:50 9,4 C 89 % 1015,7 hPa 0,2 l/m 0,3 km/h (0 Bft) N-NW 330 7,7 C 9,4 C 3,2 km/h (1 Bft)
25.05.2022 08:45 9,5 C 88 % 1015,6 hPa 0,0 l/m 0,7 km/h (0 Bft) N-NO 17 7,6 C 9,5 C 3,2 km/h (1 Bft)
25.05.2022 08:40 9,6 C 88 % 1015,5 hPa 0,2 l/m 0,4 km/h (0 Bft) N 5 7,7 C 9,6 C 4,8 km/h (1 Bft)
25.05.2022 08:35 9,6 C 89 % 1015,5 hPa 0,0 l/m 1,4 km/h (1 Bft) N-NO 28 7,9 C 9,6 C 4,8 km/h (1 Bft)
25.05.2022 08:30 9,3 C 91 % 1015,5 hPa 0,0 l/m 0,8 km/h (0 Bft) W-NW 301 7,9 C 9,3 C 4,8 km/h (1 Bft)
25.05.2022 08:25 9,2 C 92 % 1015,3 hPa 0,0 l/m 0,0 km/h (0 Bft) SW 234 8,0 C 9,2 C 0,0 km/h (0 Bft)
25.05.2022 08:20 9,1 C 93 % 1015,2 hPa 0,0 l/m 0,0 km/h (0 Bft) SW 234 8,0 C 9,1 C 0,0 km/h (0 Bft)
25.05.2022 08:15 9,0 C 92 % 1015,2 hPa 0,0 l/m 0,0 km/h (0 Bft) SW 234 7,8 C 9,0 C 1,6 km/h (1 Bft)
25.05.2022 08:10 8,9 C 93 % 1015,1 hPa 0,0 l/m 0,0 km/h (0 Bft) SW 234 7,8 C 8,9 C 0,0 km/h (0 Bft)
25.05.2022 08:05 8,8 C 93 % 1015,0 hPa 0,0 l/m 0,0 km/h (0 Bft) SW 234 7,7 C 8,8 C 0,0 km/h (0 Bft)
25.05.2022 08:00 8,7 C 93 % 1014,9 hPa 0,0 l/m 0,0 km/h (0 Bft) SW 234 7,6 C 8,7 C 0,0 km/h (0 Bft)
25.05.2022 07:55 8,6 C 93 % 1014,8 hPa 0,0 l/m 0,0 km/h (0 Bft) SW 234 7,5 C 8,6 C 0,0 km/h (0 Bft)
25.05.2022 07:50 8,7 C 93 % 1014,7 hPa 0,0 l/m 0,0 km/h (0 Bft) SW 234 7,6 C 8,7 C 0,0 km/h (0 Bft)
25.05.2022 07:45 8,5 C 93 % 1014,7 hPa 0,0 l/m 0,0 km/h (0 Bft) SW 234 7,4 C 8,5 C 0,0 km/h (0 Bft)
25.05.2022 07:41 8,3 C 93 % 1014,8 hPa 0,0 l/m 0,0 km/h (0 Bft) SW 234 7,2 C 8,3 C 0,0 km/h (0 Bft)
25.05.2022 07:35 8,2 C 93 % 1014,5 hPa 0,0 l/m 0,0 km/h (0 Bft) SW 234 7,1 C 8,2 C 0,0 km/h (0 Bft)
25.05.2022 07:30 8,2 C 92 % 1014,4 hPa 0,0 l/m 0,0 km/h (0 Bft) SW 234 7,0 C 8,2 C 0,0 km/h (0 Bft)
25.05.2022 07:25 8,1 C 93 % 1014,4 hPa 0,0 l/m 0,0 km/h (0 Bft) SW 234 7,0 C 8,1 C 0,0 km/h (0 Bft)
25.05.2022 07:20 7,9 C 93 % 1014,3 hPa 0,0 l/m 0,0 km/h (0 Bft) SW 234 6,8 C 7,9 C 0,0 km/h (0 Bft)
25.05.2022 07:15 7,7 C 93 % 1014,3 hPa 0,0 l/m 0,0 km/h (0 Bft) SW 234 6,6 C 7,7 C 0,0 km/h (0 Bft)
25.05.2022 07:10 7,7 C 93 % 1014,3 hPa 0,0 l/m 0,3 km/h (0 Bft) SW 234 6,6 C 7,7 C 1,6 km/h (1 Bft)
25.05.2022 07:06 7,7 C 93 % 1014,1 hPa 0,0 l/m 0,0 km/h (0 Bft) SW 234 6,6 C 7,7 C 0,0 km/h (0 Bft)
25.05.2022 07:00 7,6 C 93 % 1014,1 hPa 0,0 l/m 0,0 km/h (0 Bft) SW 234 6,5 C 7,6 C 0,0 km/h (0 Bft)
25.05.2022 06:55 7,4 C 93 % 1014,1 hPa 0,0 l/m 0,0 km/h (0 Bft) SW 234 6,3 C 7,4 C 0,0 km/h (0 Bft)
25.05.2022 06:50 7,4 C 93 % 1014,1 hPa 0,0 l/m 0,0 km/h (0 Bft) SW 234 6,3 C 7,4 C 0,0 km/h (0 Bft)
25.05.2022 06:45 7,3 C 93 % 1014,0 hPa 0,0 l/m 0,0 km/h (0 Bft) SW 234 6,2 C 7,3 C 0,0 km/h (0 Bft)
25.05.2022 06:41 7,3 C 93 % 1014,0 hPa 0,0 l/m 0,0 km/h (0 Bft) SW 234 6,2 C 7,3 C 0,0 km/h (0 Bft)
25.05.2022 06:35 7,2 C 93 % 1014,0 hPa 0,0 l/m 0,0 km/h (0 Bft) SW 234 6,1 C 7,2 C 0,0 km/h (0 Bft)
25.05.2022 06:30 7,1 C 93 % 1014,0 hPa 0,0 l/m 0,0 km/h (0 Bft) SW 234 6,0 C 7,1 C 0,0 km/h (0 Bft)
25.05.2022 06:25 7,1 C 93 % 1014,0 hPa 0,0 l/m 0,0 km/h (0 Bft) SW 234 6,0 C 7,1 C 0,0 km/h (0 Bft)
25.05.2022 06:20 6,9 C 93 % 1013,9 hPa 0,0 l/m 0,0 km/h (0 Bft) SW 234 5,8 C 6,9 C 0,0 km/h (0 Bft)
25.05.2022 06:16 6,8 C 93 % 1013,8 hPa 0,0 l/m 0,0 km/h (0 Bft) SW 234 5,7 C 6,8 C 0,0 km/h (0 Bft)
25.05.2022 06:10 6,7 C 93 % 1013,8 hPa 0,0 l/m 0,0 km/h (0 Bft) SW 234 5,6 C 6,7 C 0,0 km/h (0 Bft)
25.05.2022 06:05 6,7 C 93 % 1013,7 hPa 0,0 l/m 0,0 km/h (0 Bft) SW 234 5,6 C 6,7 C 0,0 km/h (0 Bft)
25.05.2022 06:00 6,6 C 93 % 1013,6 hPa 0,0 l/m 0,0 km/h (0 Bft) SW 234 5,6 C 6,6 C 0,0 km/h (0 Bft)
25.05.2022 05:55 6,6 C 93 % 1013,6 hPa 0,0 l/m 0,0 km/h (0 Bft) SW 234 5,6 C 6,6 C 0,0 km/h (0 Bft)
25.05.2022 05:50 6,7 C 93 % 1013,5 hPa 0,0 l/m 0,0 km/h (0 Bft) SW 234 5,6 C 6,7 C 0,0 km/h (0 Bft)
25.05.2022 05:45 6,6 C 93 % 1013,5 hPa 0,0 l/m 0,0 km/h (0 Bft) SW 234 5,6 C 6,6 C 0,0 km/h (0 Bft)
25.05.2022 05:40 6,4 C 93 % 1013,4 hPa 0,0 l/m 0,0 km/h (0 Bft) SW 234 5,4 C 6,4 C 0,0 km/h (0 Bft)
25.05.2022 05:35 6,3 C 94 % 1013,4 hPa 0,0 l/m 0,0 km/h (0 Bft) SW 234 5,4 C 6,3 C 0,0 km/h (0 Bft)
25.05.2022 05:30 6,2 C 93 % 1013,6 hPa 0,0 l/m 0,0 km/h (0 Bft) SW 234 5,2 C 6,2 C 0,0 km/h (0 Bft)
25.05.2022 05:25 6,1 C 94 % 1013,7 hPa 0,0 l/m 0,0 km/h (0 Bft) SW 234 5,2 C 6,1 C 0,0 km/h (0 Bft)
25.05.2022 05:20 5,9 C 94 % 1013,6 hPa 0,0 l/m 0,0 km/h (0 Bft) SW 234 5,0 C 5,9 C 0,0 km/h (0 Bft)
25.05.2022 05:15 5,9 C 94 % 1013,6 hPa 0,0 l/m 0,0 km/h (0 Bft) SW 234 5,0 C 5,9 C 0,0 km/h (0 Bft)
25.05.2022 05:10 5,8 C 94 % 1013,6 hPa 0,0 l/m 0,0 km/h (0 Bft) SW 234 4,9 C 5,8 C 0,0 km/h (0 Bft)
25.05.2022 05:05 5,6 C 94 % 1013,5 hPa 0,0 l/m 0,0 km/h (0 Bft) SW 234 4,7 C 5,6 C 0,0 km/h (0 Bft)
25.05.2022 05:00 5,6 C 93 % 1013,5 hPa 0,0 l/m 0,0 km/h (0 Bft) SW 234 4,6 C 5,6 C 0,0 km/h (0 Bft)
25.05.2022 04:55 5,6 C 93 % 1013,3 hPa 0,0 l/m 0,0 km/h (0 Bft) SW 234 4,6 C 5,6 C 0,0 km/h (0 Bft)
25.05.2022 04:50 5,8 C 93 % 1013,2 hPa 0,0 l/m 0,0 km/h (0 Bft) SW 234 4,8 C 5,8 C 0,0 km/h (0 Bft)
25.05.2022 04:45 5,8 C 94 % 1013,2 hPa 0,0 l/m 0,0 km/h (0 Bft) SW 234 4,9 C 5,8 C 0,0 km/h (0 Bft)
25.05.2022 04:40 5,7 C 94 % 1013,2 hPa 0,0 l/m 0,0 km/h (0 Bft) SW 234 4,8 C 5,7 C 0,0 km/h (0 Bft)
25.05.2022 04:35 5,4 C 93 % 1013,1 hPa 0,0 l/m 0,0 km/h (0 Bft) SW 234 4,4 C 5,4 C 0,0 km/h (0 Bft)
25.05.2022 04:30 5,5 C 93 % 1013,2 hPa 0,0 l/m 0,0 km/h (0 Bft) SW 234 4,5 C 5,5 C 0,0 km/h (0 Bft)
25.05.2022 04:25 5,5 C 93 % 1013,2 hPa 0,0 l/m 0,0 km/h (0 Bft) SW 234 4,5 C 5,5 C 0,0 km/h (0 Bft)
_ Min-Zeit 03:30 17:35 13:00 - 21:05 - - 03:30 03:30 22:15
Minimum _ 5,3 C 60 % 1006,7 hPa - 0,0 km/h (0 Bft) - - 4,3 C 5,3 C 0,0 km/h (0 Bft)
_ Max-Zeit 17:30 01:15 09:55 08:40 17:50 - - 15:45 17:30 15:05
Maximum _ 16,8 C 94 % 1016,7 hPa 0,2 l/m 9,2 km/h
S-SO (2 Bft)
- - 11,3 C 16,7 C 20,9 km/h
W-SW (4 Bft)
Durchschnitt _ 10,9 C 82 % 1011,5 hPa #2,2 l/m 2,5 km/h (1 Bft) SW - 7,8 C 10,8 C 6,4 km/h (2 Bft)